Time;durP1;ratioP1;P1;durP2;ratioP2;P2;SDS_P1;SDS_P2;PMS_P1;PMS_P2;Temp;Humidity;BMP_temperature;BMP_pressure;BME280_temperature;BME280_humidity;BME280_pressure;Samples;Min_cycle;Max_cycle;Signal;HPM_P1;HPM_P2
2023/10/13 00:00:29;;;;;;;18.50;16.80;;;16.80;99.90;;;;;;5078180;28;20475;-59
2023/10/13 00:03:00;;;;;;;21.73;17.07;;;16.80;99.90;;;;;;5077594;28;20465;-59
2023/10/13 00:05:30;;;;;;;15.50;13.90;;;16.80;99.90;;;;;;5077740;28;20539;-60
2023/10/13 00:08:00;;;;;;;21.27;15.23;;;16.80;99.90;;;;;;5078060;28;20866;-60
2023/10/13 00:10:28;;;;;;;15.30;13.83;;;16.80;99.90;;;;;;5033619;28;1274530;-59
2023/10/13 00:13:05;;;;;;;16.03;14.43;;;16.80;99.90;;;;;;5078610;28;20207;-60
2023/10/13 00:15:38;;;;;;;16.90;15.10;;;16.80;99.90;;;;;;5078931;28;20465;-59
2023/10/13 00:18:12;;;;;;;16.73;14.57;;;16.80;99.90;;;;;;5079087;28;20874;-59
2023/10/13 00:20:40;;;;;;;17.30;14.07;;;16.80;99.90;;;;;;5078023;28;20775;-60
2023/10/13 00:23:08;;;;;;;15.20;13.60;;;16.80;99.90;;;;;;5078229;28;20569;-59
2023/10/13 00:25:43;;;;;;;14.77;13.07;;;16.90;99.90;;;;;;5078575;28;20566;-59
2023/10/13 00:28:11;;;;;;;15.90;13.60;;;16.80;99.90;;;;;;5078824;28;20519;-59
2023/10/13 00:30:38;;;;;;;17.83;13.80;;;16.90;99.90;;;;;;5078160;28;20466;-59
2023/10/13 00:33:09;;;;;;;15.23;11.77;;;16.90;99.90;;;;;;5077845;28;20462;-60
2023/10/13 00:35:37;;;;;;;14.57;11.97;;;16.90;99.90;;;;;;5078022;28;20510;-59
2023/10/13 00:38:12;;;;;;;14.30;12.30;;;16.80;99.90;;;;;;5077110;28;20435;-59
2023/10/13 00:40:44;;;;;;;14.03;12.60;;;16.90;99.90;;;;;;5078112;28;20435;-59
2023/10/13 00:43:34;;;;;;;13.30;11.77;;;16.80;99.90;;;;;;5078299;28;20483;-58
2023/10/13 00:46:08;;;;;;;14.77;11.17;;;16.80;99.90;;;;;;5078507;28;20992;-59
2023/10/13 00:48:51;;;;;;;14.37;10.87;;;16.90;99.90;;;;;;5078245;28;20457;-59
2023/10/13 00:51:22;;;;;;;22.23;12.30;;;16.80;99.90;;;;;;5077948;28;20442;-58
2023/10/13 00:53:50;;;;;;;13.60;11.90;;;16.80;99.90;;;;;;5078272;28;20435;-59
2023/10/13 00:56:21;;;;;;;14.00;12.00;;;16.80;99.90;;;;;;5077936;28;20461;-59
2023/10/13 00:58:50;;;;;;;11.63;10.33;;;16.80;99.90;;;;;;5078131;28;20557;-58
2023/10/13 01:01:21;;;;;;;13.20;10.93;;;16.80;99.90;;;;;;5076999;28;20526;-59
2023/10/13 01:03:55;;;;;;;12.23;10.93;;;16.80;99.90;;;;;;5078285;28;20911;-58
2023/10/13 01:06:27;;;;;;;16.27;12.97;;;16.80;99.90;;;;;;5078061;28;20802;-59
2023/10/13 01:09:10;;;;;;;16.03;11.37;;;16.80;99.90;;;;;;5077704;28;20554;-59
2023/10/13 01:11:37;;;;;;;11.67;9.80;;;16.80;99.90;;;;;;5077731;28;20460;-59
2023/10/13 01:14:05;;;;;;;13.03;11.67;;;16.80;99.90;;;;;;5077938;28;20457;-59
2023/10/13 01:16:32;;;;;;;11.90;10.70;;;16.80;99.90;;;;;;5077395;28;20461;-59
2023/10/13 01:19:04;;;;;;;12.17;10.30;;;16.80;99.90;;;;;;5077226;28;20553;-59
2023/10/13 01:21:33;;;;;;;16.80;11.60;;;16.80;99.90;;;;;;5077602;28;20484;-59
2023/10/13 01:24:07;;;;;;;12.03;10.57;;;16.80;99.90;;;;;;5077970;28;20458;-59
2023/10/13 01:26:38;;;;;;;11.77;10.57;;;16.80;99.90;;;;;;5077226;28;20500;-60
2023/10/13 01:29:14;;;;;;;12.00;10.80;;;16.80;99.90;;;;;;5077275;28;20461;-59
2023/10/13 01:31:45;;;;;;;12.30;10.83;;;16.90;99.90;;;;;;5077679;28;20465;-60
2023/10/13 01:34:14;;;;;;;14.23;10.80;;;16.90;99.90;;;;;;5077786;28;20897;-59
2023/10/13 01:36:40;;;;;;;13.47;10.53;;;16.90;99.90;;;;;;5077279;28;20557;-58
2023/10/13 01:39:16;;;;;;;12.37;11.07;;;16.80;99.90;;;;;;5077440;28;20523;-59
2023/10/13 01:41:42;;;;;;;10.37;9.47;;;16.80;99.90;;;;;;5069980;28;20492;-59
2023/10/13 01:44:12;;;;;;;13.70;10.10;;;16.80;99.90;;;;;;5076058;28;20458;-59
2023/10/13 01:46:38;;;;;;;15.00;9.60;;;16.80;99.90;;;;;;5077280;28;20493;-58
2023/10/13 01:49:07;;;;;;;11.10;10.00;;;16.80;99.90;;;;;;5077276;28;20807;-58
2023/10/13 01:51:33;;;;;;;12.93;10.67;;;16.80;99.90;;;;;;5077038;28;20571;-60
2023/10/13 01:54:03;;;;;;;13.10;10.13;;;16.80;99.90;;;;;;5076849;28;20893;-60
2023/10/13 01:56:31;;;;;;;12.70;10.17;;;16.80;99.90;;;;;;5076678;28;20464;-60
2023/10/13 01:58:58;;;;;;;13.60;10.17;;;16.80;99.90;;;;;;5076969;28;20461;-59
2023/10/13 02:01:27;;;;;;;14.57;9.90;;;16.90;99.90;;;;;;5076901;28;20457;-59
2023/10/13 02:04:03;;;;;;;10.23;9.20;;;16.80;99.90;;;;;;5077445;28;20518;-60
2023/10/13 02:06:33;;;;;;;12.87;9.80;;;16.80;99.90;;;;;;5076820;28;20932;-59
2023/10/13 02:09:10;;;;;;;11.97;10.47;;;16.80;99.90;;;;;;5077095;28;20801;-59
2023/10/13 02:11:39;;;;;;;13.13;10.77;;;16.80;99.90;;;;;;5057151;28;20462;-60
2023/10/13 02:14:06;;;;;;;15.27;11.37;;;16.80;99.90;;;;;;5057163;28;20753;-59
2023/10/13 02:16:33;;;;;;;16.53;10.80;;;16.70;99.90;;;;;;5057165;28;20450;-60
2023/10/13 02:19:04;;;;;;;16.43;10.20;;;16.70;99.90;;;;;;5056367;28;20481;-59
2023/10/13 02:21:31;;;;;;;13.13;10.23;;;16.70;99.90;;;;;;5056370;28;20461;-59
2023/10/13 02:24:03;;;;;;;13.10;11.00;;;16.70;99.90;;;;;;5056506;28;20720;-60
2023/10/13 02:26:30;;;;;;;11.63;10.43;;;16.80;99.90;;;;;;5055822;28;20496;-60
2023/10/13 02:29:01;;;;;;;14.20;10.53;;;16.80;99.90;;;;;;5056807;28;20592;-61
2023/10/13 02:31:28;;;;;;;11.90;10.70;;;16.80;99.90;;;;;;5074941;28;20454;-61
2023/10/13 02:33:55;;;;;;;12.27;10.97;;;16.70;99.90;;;;;;5075732;28;20453;-62
2023/10/13 02:36:22;;;;;;;12.53;11.00;;;16.70;99.90;;;;;;5077248;28;20488;-61
2023/10/13 02:38:50;;;;;;;15.07;10.87;;;16.70;99.90;;;;;;5076649;28;20555;-60
2023/10/13 02:41:25;;;;;;;11.30;10.13;;;16.70;99.90;;;;;;5076596;28;20457;-62
2023/10/13 02:43:53;;;;;;;12.30;11.10;;;16.70;99.90;;;;;;5076606;28;20555;-61
2023/10/13 02:46:21;;;;;;;14.30;11.70;;;16.70;99.90;;;;;;5076620;28;20938;-61
2023/10/13 02:48:52;;;;;;;11.90;10.70;;;16.70;99.90;;;;;;5075898;28;20461;-61
2023/10/13 02:51:25;;;;;;;12.87;10.87;;;16.70;99.90;;;;;;5075319;28;20879;-61
2023/10/13 02:53:53;;;;;;;14.90;12.43;;;16.70;99.90;;;;;;5075314;28;20460;-60
2023/10/13 02:56:20;;;;;;;12.53;11.23;;;16.70;99.90;;;;;;5076487;28;20468;-61
2023/10/13 02:58:53;;;;;;;13.83;12.43;;;16.70;99.90;;;;;;5076634;28;20461;-61
2023/10/13 03:01:22;;;;;;;12.90;11.37;;;16.70;99.90;;;;;;5078628;28;20461;-60
2023/10/13 03:03:55;;;;;;;13.83;12.43;;;16.70;99.90;;;;;;5080344;28;20533;-61
2023/10/13 03:06:23;;;;;;;17.30;12.50;;;16.70;99.90;;;;;;5080135;28;20492;-60
2023/10/13 03:08:52;;;;;;;17.60;12.57;;;16.70;99.90;;;;;;5079839;28;20795;-61
2023/10/13 03:11:21;;;;;;;16.57;12.20;;;16.70;99.90;;;;;;5080231;28;20984;-59
2023/10/13 03:13:52;;;;;;;14.90;12.67;;;16.60;99.90;;;;;;5080362;28;20468;-61
2023/10/13 03:16:20;;;;;;;14.47;13.00;;;16.70;99.90;;;;;;5079948;28;20463;-62
2023/10/13 03:18:55;;;;;;;18.90;14.13;;;16.60;99.90;;;;;;5080187;28;20982;-61
2023/10/13 03:21:29;;;;;;;13.23;11.73;;;16.70;99.90;;;;;;5080100;28;20438;-64
2023/10/13 03:24:03;;;;;;;15.37;11.60;;;16.70;99.90;;;;;;5079772;28;20484;-63
2023/10/13 03:26:36;;;;;;;13.53;12.10;;;16.60;99.90;;;;;;5079580;28;20595;-64
2023/10/13 03:29:12;;;;;;;14.30;12.17;;;16.60;99.90;;;;;;5079724;28;20464;-64
2023/10/13 03:31:45;;;;;;;13.57;12.17;;;16.60;99.90;;;;;;5080012;28;20548;-63
2023/10/13 03:34:12;;;;;;;13.77;12.20;;;16.60;99.90;;;;;;5079912;28;20699;-63
2023/10/13 03:39:30;;;;;;;18.20;13.70;;;16.60;99.90;;;;;;5068995;28;20441;-64
2023/10/13 03:41:59;;;;;;;15.77;13.17;;;16.60;99.90;;;;;;5079673;28;20453;-63
2023/10/13 03:44:30;;;;;;;14.20;12.70;;;16.70;99.90;;;;;;5078800;28;20457;-63
2023/10/13 03:47:08;;;;;;;15.13;13.57;;;16.70;99.90;;;;;;5078697;28;20493;-63
2023/10/13 03:49:38;;;;;;;15.43;13.93;;;16.70;99.90;;;;;;5079312;28;20496;-62
2023/10/13 03:52:07;;;;;;;15.13;13.40;;;16.70;99.90;;;;;;5079796;28;20845;-64
2023/10/13 03:54:35;;;;;;;18.17;13.90;;;16.70;99.90;;;;;;5079151;28;20461;-63
2023/10/13 03:57:10;;;;;;;16.40;14.70;;;16.70;99.90;;;;;;5079150;28;20555;-64
2023/10/13 03:59:39;;;;;;;15.20;13.67;;;16.70;99.90;;;;;;5079091;28;20464;-63
2023/10/13 04:02:17;;;;;;;15.80;13.77;;;16.70;99.90;;;;;;5062071;28;20470;-62
2023/10/13 04:04:49;;;;;;;15.83;14.00;;;16.70;99.90;;;;;;5059139;28;20949;-64
2023/10/13 04:15:43;;;;;;;19.77;14.13;;;16.70;99.90;;;;;;5058434;28;20758;-63
2023/10/13 04:18:33;;;;;;;17.40;15.10;;;16.70;99.90;;;;;;5059265;28;20461;-63
2023/10/13 04:21:18;;;;;;;19.10;13.97;;;16.70;99.90;;;;;;5058371;28;20548;-63
2023/10/13 04:26:42;;;;;;;17.43;14.33;;;16.80;99.90;;;;;;5057935;28;20559;-62
2023/10/13 04:29:27;;;;;;;15.57;13.83;;;16.80;99.90;;;;;;5058327;28;20552;-61
2023/10/13 04:32:00;;;;;;;20.00;13.80;;;16.80;99.90;;;;;;5058604;28;20504;-62
2023/10/13 04:34:34;;;;;;;16.67;14.57;;;16.80;99.90;;;;;;5058873;28;20469;-61
2023/10/13 04:37:23;;;;;;;21.77;15.07;;;16.80;99.90;;;;;;5058567;28;20882;-62
2023/10/13 04:39:57;;;;;;;18.10;14.87;;;16.80;99.90;;;;;;5058233;28;20483;-62
2023/10/13 04:42:39;;;;;;;15.23;13.67;;;16.80;99.90;;;;;;5058271;28;20462;-62
2023/10/13 04:45:27;;;;;;;18.20;14.30;;;16.80;99.90;;;;;;5057002;28;20462;-62
2023/10/13 04:48:13;;;;;;;16.40;13.53;;;16.80;99.90;;;;;;5058703;28;20500;-61
2023/10/13 04:50:45;;;;;;;18.87;14.60;;;16.80;99.90;;;;;;5058228;28;20987;-63
2023/10/13 04:53:27;;;;;;;17.17;14.10;;;16.80;99.90;;;;;;5057852;28;20545;-63
2023/10/13 04:56:53;;;;;;;16.53;14.50;;;16.80;99.90;;;;;;5057602;28;20458;-67
2023/10/13 05:02:31;;;;;;;18.77;14.47;;;16.90;99.90;;;;;;5057671;28;20442;-65
2023/10/13 05:05:11;;;;;;;20.47;16.07;;;16.90;99.90;;;;;;5057404;28;20433;-65
2023/10/13 05:49:26;;;;;;;16.20;13.60;;;17.00;99.90;;;;;;5056653;28;20580;-59
2023/10/13 05:51:58;;;;;;;18.80;14.80;;;17.00;99.90;;;;;;5056206;28;20510;-59
2023/10/13 06:30:14;;;;;;;12.40;9.80;;;17.20;99.90;;;;;;5073266;28;20440;-61
2023/10/13 06:32:41;;;;;;;11.57;10.00;;;17.20;99.90;;;;;;5074378;28;20453;-60
2023/10/13 06:35:18;;;;;;;10.33;9.33;;;17.20;99.90;;;;;;5074503;28;20463;-59
2023/10/13 06:37:45;;;;;;;10.80;9.70;;;17.20;99.90;;;;;;5079321;28;20463;-59
2023/10/13 06:40:22;;;;;;;13.40;9.77;;;17.20;99.90;;;;;;5080017;28;20488;-61
2023/10/13 06:42:49;;;;;;;13.07;10.30;;;17.30;99.90;;;;;;5079677;28;20762;-61
2023/10/13 06:45:18;;;;;;;16.20;11.23;;;17.30;99.90;;;;;;5079652;28;20464;-60
2023/10/13 06:47:45;;;;;;;15.63;11.17;;;17.30;99.90;;;;;;5080242;28;20532;-62
2023/10/13 06:50:16;;;;;;;17.50;11.10;;;17.30;99.90;;;;;;5075175;28;20824;-61
2023/10/13 06:52:43;;;;;;;11.53;10.43;;;17.30;99.90;;;;;;5079996;28;20457;-61
2023/10/13 06:55:16;;;;;;;14.90;10.93;;;17.30;99.90;;;;;;5080285;28;20560;-62
2023/10/13 06:57:44;;;;;;;18.30;13.10;;;17.40;99.90;;;;;;5079627;28;20510;-62
2023/10/13 07:00:19;;;;;;;12.43;11.13;;;17.30;99.90;;;;;;5077213;28;20568;-62
2023/10/13 07:02:51;;;;;;;14.50;11.33;;;17.40;99.90;;;;;;5076892;28;20461;-62
2023/10/13 07:05:19;;;;;;;14.43;11.03;;;17.40;99.90;;;;;;5077220;28;20468;-62
2023/10/13 07:07:48;;;;;;;18.50;10.93;;;17.40;99.90;;;;;;5077785;28;20510;-61
2023/10/13 07:10:16;;;;;;;13.67;10.43;;;17.50;99.90;;;;;;5077498;28;20489;-62
2023/10/13 07:12:43;;;;;;;14.77;11.60;;;17.50;99.90;;;;;;5077552;28;20483;-60
2023/10/13 07:15:19;;;;;;;13.20;10.47;;;17.50;99.90;;;;;;5076808;28;20476;-60
2023/10/13 07:17:54;;;;;;;15.90;10.53;;;17.50;99.90;;;;;;5078747;28;20487;-61
2023/10/13 07:20:33;;;;;;;12.83;11.23;;;17.60;99.90;;;;;;5076138;28;20560;-61
2023/10/13 07:23:03;;;;;;;14.60;10.63;;;17.60;99.90;;;;;;5078439;28;20435;-60
2023/10/13 07:25:32;;;;;;;14.30;10.93;;;17.60;99.90;;;;;;5079066;28;20480;-61
2023/10/13 07:28:00;;;;;;;16.40;11.00;;;17.70;99.90;;;;;;5079490;28;20500;-64
2023/10/13 07:30:30;;;;;;;13.63;9.53;;;17.70;99.90;;;;;;5079035;28;20816;-60
2023/10/13 07:32:59;;;;;;;13.63;10.60;;;17.70;99.90;;;;;;5078240;28;20489;-60
2023/10/13 07:35:30;;;;;;;15.30;10.10;;;17.80;99.90;;;;;;5077961;28;20461;-60
2023/10/13 07:37:59;;;;;;;16.30;10.37;;;17.80;99.90;;;;;;5078191;28;20458;-59
2023/10/13 07:40:40;;;;;;;12.60;9.60;;;17.80;99.90;;;;;;5077445;28;20755;-60
2023/10/13 07:43:10;;;;;;;16.17;10.40;;;17.90;99.90;;;;;;5077992;28;20464;-61
2023/10/13 07:45:38;;;;;;;14.90;9.43;;;17.90;99.90;;;;;;5076935;28;20464;-60
2023/10/13 07:48:12;;;;;;;14.43;10.23;;;17.90;99.90;;;;;;5076824;28;20833;-59
2023/10/13 07:50:40;;;;;;;12.70;9.77;;;17.90;99.90;;;;;;5077075;28;20535;-61
2023/10/13 07:53:18;;;;;;;17.53;10.43;;;17.90;99.90;;;;;;5077930;28;20462;-61
2023/10/13 07:55:49;;;;;;;14.60;8.77;;;18.00;99.90;;;;;;5078490;28;20472;-60
2023/10/13 07:58:16;;;;;;;17.57;9.10;;;17.90;99.90;;;;;;5079188;28;20530;-60
2023/10/13 08:00:53;;;;;;;11.30;8.97;;;17.90;99.90;;;;;;5079265;28;20464;-61
2023/10/13 08:03:35;;;;;;;18.60;9.50;;;17.90;99.90;;;;;;5078953;28;20595;-60
2023/10/13 08:06:06;;;;;;;19.03;10.60;;;18.00;99.90;;;;;;5079233;28;20461;-62
2023/10/13 08:08:39;;;;;;;15.00;10.07;;;18.00;99.90;;;;;;5078583;28;20496;-60
2023/10/13 08:11:11;;;;;;;17.43;9.83;;;18.00;99.90;;;;;;5079093;28;20461;-60
2023/10/13 08:13:46;;;;;;;16.83;9.53;;;18.10;99.90;;;;;;5079178;28;20461;-61
2023/10/13 08:16:20;;;;;;;16.93;9.40;;;18.00;99.90;;;;;;5079077;28;20581;-58
2023/10/13 08:18:50;;;;;;;18.70;9.10;;;18.00;99.90;;;;;;5078752;28;20468;-60
2023/10/13 08:21:22;;;;;;;21.40;11.17;;;18.00;99.90;;;;;;5079017;28;20551;-60
2023/10/13 08:23:59;;;;;;;16.67;10.53;;;18.00;99.90;;;;;;5079148;28;20510;-61
2023/10/13 08:26:38;;;;;;;17.57;10.27;;;18.10;99.90;;;;;;5078576;28;20511;-59
2023/10/13 08:32:08;;;;;;;14.43;9.47;;;18.10;99.90;;;;;;5078429;28;20528;-62
2023/10/13 08:34:59;;;;;;;20.30;10.00;;;18.10;99.90;;;;;;5077734;28;20463;-60
2023/10/13 08:37:30;;;;;;;17.43;10.03;;;18.10;99.90;;;;;;5078277;28;20519;-60
2023/10/13 08:40:21;;;;;;;19.00;10.60;;;18.30;99.90;;;;;;5078708;28;20810;-61
2023/10/13 08:43:09;;;;;;;14.00;9.53;;;18.30;99.90;;;;;;5077922;28;20943;-61
2023/10/13 08:45:58;;;;;;;12.87;8.33;;;18.40;99.90;;;;;;5077821;28;20471;-60
2023/10/13 08:48:31;;;;;;;14.77;8.73;;;18.50;99.90;;;;;;5078629;28;20866;-59
2023/10/13 08:51:12;;;;;;;15.77;9.73;;;18.60;99.90;;;;;;5078148;28;20560;-60
2023/10/13 08:53:51;;;;;;;18.17;10.07;;;18.90;99.90;;;;;;5078417;28;20461;-60
2023/10/13 08:56:32;;;;;;;17.63;8.60;;;19.20;99.90;;;;;;5078474;28;20461;-62
2023/10/13 08:59:05;;;;;;;10.37;6.87;;;19.50;99.90;;;;;;5076495;28;20466;-61
2023/10/13 09:01:45;;;;;;;18.13;8.10;;;19.70;99.90;;;;;;5076762;28;20906;-62
2023/10/13 09:04:21;;;;;;;14.10;7.30;;;19.90;99.90;;;;;;5077745;28;20892;-62
2023/10/13 09:07:08;;;;;;;15.43;7.93;;;20.10;99.90;;;;;;5077444;28;20542;-61
2023/10/13 09:10:11;;;;;;;13.03;7.77;;;20.20;99.90;;;;;;5077565;28;20495;-62
2023/10/13 09:13:00;;;;;;;13.37;8.40;;;20.40;99.90;;;;;;5077629;28;20606;-61
2023/10/13 09:15:59;;;;;;;16.87;7.83;;;20.60;99.90;;;;;;5076354;28;20936;-61
2023/10/13 09:21:43;;;;;;;14.27;8.10;;;20.40;99.90;;;;;;5075195;28;20433;-62
2023/10/13 09:26:39;;;;;;;19.10;8.33;;;20.40;99.90;;;;;;5076483;28;20544;-62
2023/10/13 09:29:17;;;;;;;12.63;8.27;;;20.50;99.90;;;;;;5077498;28;20462;-61
2023/10/13 09:31:44;;;;;;;14.37;7.70;;;20.80;99.90;;;;;;5077806;28;20460;-62
2023/10/13 09:34:19;;;;;;;16.60;7.17;;;21.20;99.90;;;;;;5077739;28;20461;-62
2023/10/13 09:36:55;;;;;;;16.67;7.30;;;21.40;1.00;;;;;;5071998;28;20439;-61
2023/10/13 09:39:41;;;;;;;14.10;6.83;;;21.40;99.90;;;;;;5059169;28;20816;-61
2023/10/13 09:42:10;;;;;;;15.00;7.03;;;21.50;32.00;;;;;;5069244;28;20518;-62
2023/10/13 09:44:40;;;;;;;17.63;7.60;;;21.50;1.00;;;;;;5076746;28;20462;-62
2023/10/13 09:47:17;;;;;;;14.20;8.20;;;21.50;99.90;;;;;;5076570;28;20499;-62
2023/10/13 09:49:48;;;;;;;13.20;7.70;;;21.50;30.80;;;;;;5076984;28;20751;-61
2023/10/13 09:52:20;;;;;;;17.43;7.73;;;21.60;1.00;;;;;;5075454;28;20524;-62
2023/10/13 09:55:10;;;;;;;11.33;7.73;;;21.40;1.00;;;;;;5075382;28;20882;-61
2023/10/13 09:57:44;;;;;;;15.33;7.87;;;21.40;1.00;;;;;;5057822;28;20887;-61
2023/10/13 10:03:14;;;;;;;20.57;8.30;;;21.80;1.00;;;;;;5074908;28;20440;-61
2023/10/13 10:05:49;;;;;;;13.53;7.20;;;22.00;1.00;;;;;;5075374;28;20882;-60
2023/10/13 10:08:31;;;;;;;11.67;7.20;;;22.10;1.00;;;;;;5076202;28;20546;-60
2023/10/13 10:11:17;;;;;;;11.33;8.00;;;22.10;1.00;;;;;;5080456;28;20465;-60
2023/10/13 10:13:57;;;;;;;17.53;8.40;;;22.40;1.00;;;;;;5080705;28;20540;-60
2023/10/13 10:16:38;;;;;;;11.80;8.13;;;22.50;99.90;;;;;;5081555;28;20495;-61
2023/10/13 10:19:07;;;;;;;13.70;7.93;;;22.40;99.90;;;;;;5081239;28;20492;-61
2023/10/13 10:21:35;;;;;;;11.77;8.73;;;22.40;99.90;;;;;;5081050;28;20465;-60
2023/10/13 10:24:13;;;;;;;16.30;8.80;;;22.30;99.90;;;;;;5081100;28;20464;-61
2023/10/13 10:26:52;;;;;;;12.10;8.20;;;22.60;99.90;;;;;;5081336;28;20465;-60
2023/10/13 10:29:20;;;;;;;13.17;8.37;;;22.70;99.90;;;;;;5080988;28;20448;-60
2023/10/13 10:31:47;;;;;;;13.10;7.50;;;22.70;99.90;;;;;;5080562;28;20502;-60
2023/10/13 10:34:18;;;;;;;15.73;8.10;;;22.70;99.90;;;;;;5080266;28;20755;-61
2023/10/13 10:36:48;;;;;;;12.33;8.07;;;22.60;99.90;;;;;;5080673;28;20475;-59
2023/10/13 10:39:17;;;;;;;11.33;8.13;;;22.60;99.90;;;;;;5080799;28;20457;-60
2023/10/13 10:41:51;;;;;;;12.70;7.80;;;22.50;99.90;;;;;;5080941;28;20468;-60
2023/10/13 10:44:33;;;;;;;11.73;7.50;;;22.60;99.90;;;;;;5078388;28;20901;-59
2023/10/13 10:47:11;;;;;;;13.60;7.80;;;22.80;99.90;;;;;;5078809;28;20601;-60
2023/10/13 10:49:41;;;;;;;14.33;8.40;;;23.00;99.90;;;;;;5079776;28;20461;-59
2023/10/13 10:52:18;;;;;;;12.80;9.00;;;23.10;99.90;;;;;;5079807;28;20465;-61
2023/10/13 10:54:51;;;;;;;9.77;7.70;;;23.10;99.90;;;;;;5078655;28;21041;-62
2023/10/13 10:57:20;;;;;;;11.77;10.00;;;23.20;99.90;;;;;;5078665;28;20453;-61
2023/10/13 11:00:09;;;;;;;16.17;9.13;;;23.30;98.50;;;;;;5078767;28;20514;-60
2023/10/13 11:02:35;;;;;;;10.60;8.03;;;23.50;80.50;;;;;;5079134;28;20543;-59
2023/10/13 11:05:03;;;;;;;9.63;8.60;;;23.80;54.80;;;;;;5079856;28;20929;-60
2023/10/13 11:07:31;;;;;;;14.17;8.03;;;24.10;17.20;;;;;;5079025;28;20489;-59
2023/10/13 11:10:12;;;;;;;15.00;9.50;;;24.30;15.70;;;;;;5079728;28;20539;-59
2023/10/13 11:12:43;;;;;;;13.30;8.20;;;24.40;1.00;;;;;;5058629;28;20472;-59
2023/10/13 11:15:14;;;;;;;11.97;8.97;;;24.50;1.00;;;;;;5057298;28;20464;-59
2023/10/13 11:17:50;;;;;;;17.23;8.40;;;24.60;1.00;;;;;;5058259;28;20537;-59
2023/10/13 11:20:25;;;;;;;14.47;7.63;;;24.60;1.00;;;;;;5058812;28;20465;-59
2023/10/13 11:22:53;;;;;;;13.97;7.83;;;24.90;1.00;;;;;;5058546;28;20458;-59
2023/10/13 11:25:29;;;;;;;11.80;8.37;;;25.10;1.00;;;;;;5059514;28;20464;-60
2023/10/13 11:27:59;;;;;;;11.63;8.03;;;25.10;1.00;;;;;;5059497;28;20832;-59
2023/10/13 11:30:40;;;;;;;14.73;8.43;;;24.80;1.00;;;;;;5057289;28;20894;-61
2023/10/13 11:33:10;;;;;;;15.30;8.83;;;24.60;1.00;;;;;;5057483;28;20466;-59
2023/10/13 11:35:56;;;;;;;14.27;8.60;;;24.40;1.00;;;;;;5062373;28;20450;-59
2023/10/13 11:38:27;;;;;;;12.33;8.80;;;24.40;1.00;;;;;;5077647;28;20503;-61
2023/10/13 11:44:13;;;;;;;9.63;8.40;;;24.20;1.00;;;;;;5041072;28;20446;-60
2023/10/13 11:47:16;;;;;;;11.43;8.60;;;24.10;1.00;;;;;;5077063;28;20507;-59
2023/10/13 11:49:47;;;;;;;12.50;9.27;;;24.00;1.00;;;;;;5079171;28;20449;-59
2023/10/13 11:52:18;;;;;;;15.50;9.50;;;23.90;1.00;;;;;;5079627;28;20457;-59
2023/10/13 11:54:46;;;;;;;13.33;9.60;;;23.70;1.00;;;;;;5079284;28;20544;-59
2023/10/13 11:57:16;;;;;;;17.60;9.07;;;23.50;1.00;;;;;;5079402;28;20461;-59
2023/10/13 11:59:56;;;;;;;20.27;10.00;;;23.70;1.00;;;;;;5077381;28;20866;-60
2023/10/13 12:05:17;;;;;;;9.57;8.53;;;24.50;1.00;;;;;;5058716;28;20430;-58
2023/10/13 12:07:48;;;;;;;16.60;8.27;;;24.10;1.00;;;;;;5059184;28;20838;-59
2023/10/13 12:10:20;;;;;;;13.83;9.10;;;24.10;1.00;;;;;;5058843;28;20483;-58
2023/10/13 12:12:53;;;;;;;14.87;9.80;;;23.90;1.00;;;;;;5058644;28;20469;-59
2023/10/13 12:15:36;;;;;;;14.77;8.50;;;23.80;1.00;;;;;;5058917;28;20465;-60
2023/10/13 12:18:05;;;;;;;13.70;9.07;;;23.60;1.00;;;;;;5073684;28;20889;-60
2023/10/13 12:20:35;;;;;;;11.03;8.07;;;23.40;1.00;;;;;;5077238;28;20917;-59
2023/10/13 12:23:15;;;;;;;13.20;8.70;;;23.30;1.00;;;;;;5077986;28;20557;-59
2023/10/13 12:25:54;;;;;;;14.17;9.00;;;23.30;1.00;;;;;;5078314;28;20468;-59
2023/10/13 12:28:26;;;;;;;16.80;9.00;;;23.20;1.00;;;;;;5078993;28;20579;-59
2023/10/13 12:30:57;;;;;;;12.80;8.03;;;23.10;1.00;;;;;;5077528;28;20465;-59
2023/10/13 12:33:26;;;;;;;16.60;8.90;;;23.00;1.00;;;;;;5057385;28;20458;-60
2023/10/13 12:36:15;;;;;;;11.30;8.70;;;23.00;1.00;;;;;;5076664;28;20466;-60
2023/10/13 12:49:58;;;;;;;15.53;8.80;;;22.90;1.00;;;;;;5076340;28;20627;-60
2023/10/13 12:52:31;;;;;;;10.73;7.80;;;22.90;1.00;;;;;;5077167;28;20457;-61
2023/10/13 12:55:09;;;;;;;15.83;8.90;;;23.00;1.00;;;;;;5077066;28;20461;-58
2023/10/13 12:57:43;;;;;;;10.60;7.33;;;23.00;1.00;;;;;;5077187;28;20469;-60
2023/10/13 13:00:25;;;;;;;11.00;7.80;;;23.00;1.00;;;;;;5076460;28;20485;-60
2023/10/13 13:02:55;;;;;;;13.80;7.30;;;23.10;1.00;;;;;;5074760;28;20511;-60
2023/10/13 13:05:28;;;;;;;14.87;7.30;;;23.30;1.00;;;;;;5076146;28;20453;-62
2023/10/13 13:07:56;;;;;;;12.10;8.13;;;23.30;1.00;;;;;;5077268;28;20492;-63
2023/10/13 13:10:34;;;;;;;14.53;6.93;;;23.30;1.00;;;;;;5077049;28;20487;-61
2023/10/13 13:13:06;;;;;;;20.30;7.23;;;23.20;1.00;;;;;;5074425;28;20449;-60
2023/10/13 13:15:33;;;;;;;15.30;7.60;;;23.00;1.00;;;;;;5076330;28;20453;-61
2023/10/13 13:18:09;;;;;;;14.40;7.77;;;23.00;1.00;;;;;;5074403;28;20506;-61
2023/10/13 13:20:39;;;;;;;15.20;7.77;;;22.90;1.00;;;;;;5074902;28;20460;-60
2023/10/13 13:23:07;;;;;;;18.13;7.37;;;22.80;1.00;;;;;;5075174;28;20490;-59
2023/10/13 13:25:42;;;;;;;15.60;7.10;;;22.80;1.00;;;;;;5075703;28;20458;-60
2023/10/13 13:28:10;;;;;;;12.30;7.53;;;22.90;1.00;;;;;;5072411;28;20485;-63
2023/10/13 13:30:37;;;;;;;10.57;7.63;;;22.90;1.00;;;;;;5070851;28;20500;-61
2023/10/13 13:33:11;;;;;;;18.23;8.17;;;22.80;1.00;;;;;;5075566;28;20563;-62
2023/10/13 13:35:39;;;;;;;13.50;7.70;;;22.80;1.00;;;;;;5075387;28;20457;-62
2023/10/13 13:38:16;;;;;;;17.13;8.57;;;22.90;1.00;;;;;;5075640;28;20484;-61
2023/10/13 13:40:48;;;;;;;13.93;7.90;;;23.00;1.00;;;;;;5075570;28;20452;-62
2023/10/13 13:43:31;;;;;;;15.00;7.93;;;22.90;1.00;;;;;;5075297;28;20461;-62
2023/10/13 13:46:00;;;;;;;14.90;7.20;;;22.90;1.00;;;;;;5073513;28;20898;-61
2023/10/13 13:48:32;;;;;;;18.10;8.10;;;22.80;1.00;;;;;;5074219;28;20489;-60
2023/10/13 13:51:04;;;;;;;14.93;7.83;;;22.70;1.00;;;;;;5074176;28;20468;-61
2023/10/13 13:53:34;;;;;;;13.10;7.60;;;22.60;1.00;;;;;;5073049;28;20473;-63
2023/10/13 13:56:03;;;;;;;15.43;8.30;;;22.50;1.00;;;;;;5073332;28;20469;-61
2023/10/13 13:58:30;;;;;;;16.03;8.70;;;22.50;1.00;;;;;;5069781;28;20489;-61
2023/10/13 14:01:11;;;;;;;11.37;7.50;;;22.40;1.00;;;;;;5075785;28;20463;-62
2023/10/13 14:03:45;;;;;;;10.90;8.00;;;22.40;1.00;;;;;;5076442;28;20465;-62
2023/10/13 14:06:17;;;;;;;12.10;7.83;;;22.40;1.00;;;;;;5076005;28;20472;-61
2023/10/13 14:08:48;;;;;;;17.80;8.27;;;22.40;1.00;;;;;;5069969;28;20505;-62
2023/10/13 14:12:25;;;;;;;11.60;7.23;;;22.40;1.00;;;;;;5074753;28;20457;-60
2023/10/13 14:14:11;;;;;;;13.90;7.40;;;22.40;1.00;;;;;;5074744;28;20464;-61
2023/10/13 14:16:44;;;;;;;11.93;7.10;;;22.40;1.00;;;;;;5075369;28;20461;-61
2023/10/13 14:19:19;;;;;;;18.13;7.13;;;22.40;1.00;;;;;;5076445;28;20496;-64
2023/10/13 14:21:53;;;;;;;13.43;8.00;;;22.50;1.00;;;;;;5076584;28;20559;-60
2023/10/13 14:24:27;;;;;;;13.83;7.70;;;22.40;1.00;;;;;;5077144;28;20483;-61
2023/10/13 14:26:55;;;;;;;21.30;8.00;;;22.40;1.00;;;;;;5076731;28;20468;-61
2023/10/13 14:29:26;;;;;;;19.47;7.47;;;22.30;1.00;;;;;;5074069;28;20576;-62
2023/10/13 14:31:53;;;;;;;17.13;7.40;;;22.30;1.00;;;;;;5064781;28;20470;-60
2023/10/13 14:34:22;;;;;;;13.37;7.97;;;22.30;1.00;;;;;;5055981;28;20747;-63
2023/10/13 14:36:54;;;;;;;12.47;6.73;;;22.30;1.00;;;;;;5055088;28;20732;-62
2023/10/13 14:39:21;;;;;;;16.43;8.33;;;22.30;1.00;;;;;;5056223;28;20826;-61
2023/10/13 14:41:49;;;;;;;12.17;7.50;;;22.40;1.00;;;;;;5056967;28;20553;-61
2023/10/13 14:44:16;;;;;;;14.23;7.43;;;22.40;1.00;;;;;;5056707;28;20768;-60
2023/10/13 14:46:43;;;;;;;15.97;7.17;;;22.40;1.00;;;;;;5056142;28;20508;-62
2023/10/13 14:49:14;;;;;;;12.87;7.70;;;22.30;1.00;;;;;;5072439;28;20485;-62
2023/10/13 14:51:42;;;;;;;17.30;7.37;;;22.30;1.00;;;;;;5076363;28;20465;-62
2023/10/13 14:54:10;;;;;;;13.07;7.23;;;22.30;1.00;;;;;;5076444;28;20511;-63
2023/10/13 14:56:37;;;;;;;14.10;7.30;;;22.30;1.00;;;;;;5076833;28;20436;-61
2023/10/13 14:59:05;;;;;;;17.40;8.23;;;22.30;1.00;;;;;;5079874;28;20453;-62
2023/10/13 15:01:32;;;;;;;16.00;7.80;;;22.30;1.00;;;;;;5080601;28;20579;-61
2023/10/13 15:04:00;;;;;;;12.67;7.00;;;22.20;1.00;;;;;;5080417;28;20463;-62
2023/10/13 15:06:29;;;;;;;16.80;8.07;;;22.20;1.00;;;;;;5080281;28;20476;-61
2023/10/13 15:08:59;;;;;;;17.20;7.77;;;22.20;1.00;;;;;;5079721;28;20795;-61